Správy METAR z letísk v Slovenskej republike

LZTT - Poprad Tatry, Slovenská republika
Vzdialenosť od tejto stanice: Západne 25km
Aktualizované: 22.07.2018 12:00
 
Teplota vzduchu: 22°C
Vietor: J 11 km/h
Rosný bod: 15°C
Vlhkosť vzduchu: 65%
Tlak vzduchu: 1011 hPa
Oblačnosť: skoro jasno
Viditeľnosť: 10 km
Detaily oblačnosti: skoro jasno 1524 m
2018/07/22 10:00 LZTT 221000Z 18006KT 9999 FEW050CB 22/15 Q1011 NOSIG
LZKZ - Košice, Slovenská republika
Vzdialenosť od tejto stanice: VJV 62km
Aktualizované: 22.07.2018 12:00
 
Teplota vzduchu: 22°C
Vietor: JJZ 11 km/h
Rosný bod: 19°C
Vlhkosť vzduchu: 83%
Tlak vzduchu: 1010 hPa
Stav počasia: Miernejší dážď, Prehánky
Oblačnosť: skoro zatiahnuto
Viditeľnosť: 10 km
Detaily oblačnosti: skoro jasno 1524 m
skoro zatiahnuto 1829 m
2018/07/22 10:00 LZKZ 221000Z 20006KT 9999 -SHRA FEW050CB BKN060 22/19 Q1010 NOSIG
 
LZSL - Sliač, Slovenská republika
Vzdialenosť od tejto stanice: ZJZ 131km
Aktualizované: 22.07.2018 12:00
 
Teplota vzduchu: 24°C
Vietor: Z 6 km/h
Rosný bod: 15°C
Vlhkosť vzduchu: 57%
Tlak vzduchu: 1011 hPa
Oblačnosť: skoro zatiahnuto
Viditeľnosť: 10 km
Detaily oblačnosti: skoro jasno 1524 m
skoro zatiahnuto 2987 m
2018/07/22 10:00 LZSL 221000Z 28003KT 250V340 9999 FEW050 BKN098 24/15 Q1011
LZZI - Žilina, Slovenská republika
Vzdialenosť od tejto stanice: Západne 161km
Aktualizované: 22.07.2018 12:00
 
Teplota vzduchu: 24°C
Vietor: premenlivý 4 km/h
Rosný bod: 14°C
Vlhkosť vzduchu: 54%
Tlak vzduchu: 1010 hPa
Oblačnosť: skoro zatiahnuto
Viditeľnosť: 10 km
Detaily oblačnosti: skoro jasno 1219 m
skoro zatiahnuto 2652 m
2018/07/22 10:00 LZZI 221000Z VRB02KT 9999 FEW040 BKN087 24/14 Q1010
 
LZIB - Bratislava, Slovernská republika
Vzdialenosť od tejto stanice: ZJZ 274km
Aktualizované: 22.07.2018 12:00
 
Teplota vzduchu: 23°C
Vietor: ZSZ 13 km/h
Rosný bod: 17°C
Vlhkosť vzduchu: 69%
Tlak vzduchu: 1010 hPa
Oblačnosť: oblačno
Viditeľnosť: 10 km
Detaily oblačnosti: skoro jasno 792 m
oblačno 1341 m
2018/07/22 10:00 LZIB 221000Z 29007KT 9999 FEW026 SCT044 23/17 Q1010 NOSIG
LZPP - Piešťany, Slovenská republika
Vzdialenosť od tejto stanice: ZJZ 237km
Aktualizované: 22.07.2018 12:00
 
Teplota vzduchu: 21°C
Vietor: premenlivý 4 km/h
Rosný bod: 17°C
Vlhkosť vzduchu: 78%
Tlak vzduchu: 1010 hPa
Oblačnosť: skoro zatiahnuto
Viditeľnosť: 10 km
Detaily oblačnosti: skoro jasno 488 m
skoro zatiahnuto 762 m
2018/07/22 10:00 LZPP 221000Z VRB02KT 9999 FEW016 BKN025 21/17 Q1010
 
LZNI - Nitra, Slovenská republika
Vzdialenosť od tejto stanice: ZJZ 207km
Aktualizované: 31.12.2012 21:00
Údaje nie sú aktuálne
 
Teplota vzduchu: 1°C
Vietor: premenlivý 0 km/h
Rosný bod: -2°C
Vlhkosť vzduchu: 81%
Tlak vzduchu: 1022 hPa
Stav počasia: Jasno
Oblačnosť: jasná obloha
Viditeľnosť: viac ako 10 km
2012/12/31 20:00 LZNI 312000Z /////KT CAVOK 01/M02 Q1022
LZPE - Prievidza, Slovenská republika
Vzdialenosť od tejto stanice: ZJZ 148km
Aktualizované: 31.12.2012 21:00
Údaje nie sú aktuálne
 
Teplota vzduchu: -3°C
Vietor: premenlivý 0 km/h
Rosný bod: -4°C
Vlhkosť vzduchu: 93%
Tlak vzduchu: 1022 hPa
Stav počasia: Jasno
Oblačnosť: jasná obloha
Viditeľnosť: viac ako 10 km
2012/12/31 20:00 LZPE 312000Z /////KT CAVOK M03/M04 Q1022
 
LZKC - Kamenica nad Cirochou, Slovenská republika
Vzdialenosť od tejto stanice: VJV 90km
Aktualizované: 01.01.2013 13:00
Údaje nie sú aktuálne
 
Teplota vzduchu: 4°C
Chlad vetra: 1°C
Vietor: JJZ 11 km/h
Rosný bod: -7°C
Vlhkosť vzduchu: 45%
Tlak vzduchu: 1019 hPa
Oblačnosť: skoro jasno
Viditeľnosť: 10 km
Detaily oblačnosti: skoro jasno 1615 m
2013/01/01 12:00 LZKC 011200Z 21006KT 150V290 9999 FEW053 04/M07 Q1019
LZLU - Lučenec, Slovenská republika
Vzdialenosť od tejto stanice: ZJZ 123km
Aktualizované: 14.03.2013 12:10
Údaje nie sú aktuálne
 
Teplota vzduchu: 2°C
Chlad vetra: -2°C
Vietor: V 17 km/h
Rosný bod: 1°C
Vlhkosť vzduchu: 93%
Tlak vzduchu: 994 hPa
2013/03/14 11:10 LZLU 141110Z AUTO 08009KT //// ////// 02/01 Q0994

Metar display script od Saratoga-Weather.org
upravil a preložil Miloš Jiřík Konečná úprava a preklad do Slovenčiny Teodor Zibura